Time;durP1;ratioP1;P1;durP2;ratioP2;P2;SDS_P1;SDS_P2;PMS_P1;PMS_P2;Temp;Humidity;BMP_temperature;BMP_pressure;BME280_temperature;BME280_humidity;BME280_pressure;Samples;Min_cycle;Max_cycle;Signal;HPM_P1;HPM_P2
2022/08/13 00:00:44;;;;;;;;;7.50;6.75;;;;;28.81;19.31;100792.94;5079769;28;45248;-54
2022/08/13 00:03:13;;;;;;;;;8.00;8.00;;;;;28.76;19.59;100787.09;5069369;28;46413;-55
2022/08/13 00:05:39;;;;;;;;;8.25;7.25;;;;;28.75;19.84;100784.53;5061145;28;45220;-55
2022/08/13 00:08:04;;;;;;;;;8.50;8.00;;;;;28.73;19.93;100794.63;5061361;28;45288;-55
2022/08/13 00:10:30;;;;;;;;;8.00;8.00;;;;;28.65;19.61;100788.06;5061042;28;45480;-54
2022/08/13 00:12:57;;;;;;;;;7.75;6.00;;;;;28.64;19.40;100790.88;5061285;28;46025;-54
2022/08/13 00:15:28;;;;;;;;;7.25;7.00;;;;;28.59;19.49;100799.41;5060794;28;45715;-54
2022/08/13 00:18:00;;;;;;;;;8.25;7.50;;;;;28.54;20.08;100796.25;5061074;28;45296;-55
2022/08/13 00:20:29;;;;;;;;;6.00;6.00;;;;;28.50;19.96;100789.41;5059917;28;45422;-53
2022/08/13 00:22:55;;;;;;;;;15.25;14.75;;;;;28.45;19.70;100797.09;5059382;28;46042;-53
2022/08/13 00:25:21;;;;;;;;;18.25;17.25;;;;;28.38;20.00;100786.81;5061036;28;45359;-55
2022/08/13 00:27:56;;;;;;;;;7.00;7.00;;;;;28.36;19.62;100796.94;5060939;28;45324;-52
2022/08/13 00:30:23;;;;;;;;;6.75;6.75;;;;;28.31;20.10;100788.34;5060690;28;45308;-54
2022/08/13 00:32:49;;;;;;;;;9.00;9.00;;;;;28.20;20.04;100772.25;5060427;28;45929;-55
2022/08/13 00:35:14;;;;;;;;;6.25;5.50;;;;;28.23;20.13;100788.19;5060829;28;45333;-55
2022/08/13 00:37:41;;;;;;;;;6.75;6.75;;;;;28.18;20.05;100794.00;5060823;28;45364;-54
2022/08/13 00:40:09;;;;;;;;;6.50;6.50;;;;;28.16;20.05;100793.28;5060984;28;45465;-54
2022/08/13 00:42:39;;;;;;;;;6.00;6.00;;;;;28.11;19.83;100784.72;5060336;28;45406;-54
2022/08/13 00:45:07;;;;;;;;;5.00;4.50;;;;;28.08;19.80;100790.41;5059321;28;45348;-55
2022/08/13 00:50:16;;;;;;;;;6.50;6.50;;;;;28.00;20.13;100784.75;5060378;28;45252;-54
2022/08/13 00:52:42;;;;;;;;;12.00;11.00;;;;;27.99;19.77;100785.78;5079014;28;46276;-55
2022/08/13 00:55:16;;;;;;;;;7.50;7.50;;;;;27.96;19.96;100786.91;5067130;28;45285;-55
2022/08/13 00:57:45;;;;;;;;;9.75;8.25;;;;;27.93;19.79;100789.00;5067819;28;45333;-55
2022/08/13 01:00:15;;;;;;;;;7.00;7.00;;;;;27.88;19.91;100774.06;5080392;28;45517;-54
2022/08/13 01:02:46;;;;;;;;;6.00;5.75;;;;;27.86;19.85;100786.84;5072302;28;46157;-55
2022/08/13 01:05:11;;;;;;;;;8.00;7.50;;;;;27.83;20.29;100789.78;5060488;28;45263;-55
2022/08/13 01:07:41;;;;;;;;;7.00;6.25;;;;;27.81;19.86;100788.22;5067552;28;45233;-55
2022/08/13 01:10:12;;;;;;;;;8.75;7.25;;;;;27.78;20.71;100785.81;5080733;28;45331;-54
2022/08/13 01:12:39;;;;;;;;;10.00;9.00;;;;;27.71;20.32;100777.34;5080473;28;46171;-54
2022/08/13 01:15:07;;;;;;;;;8.00;7.50;;;;;27.69;20.34;100788.28;5079127;28;45419;-55
2022/08/13 01:17:33;;;;;;;;;7.25;7.25;;;;;27.68;20.58;100791.13;5080196;28;45398;-55
2022/08/13 01:19:58;;;;;;;;;5.50;4.50;;;;;27.64;20.33;100793.25;5080606;28;45149;-58
2022/08/13 01:22:25;;;;;;;;;8.50;6.50;;;;;27.62;20.16;100794.34;5068957;28;47150;-58
2022/08/13 01:24:51;;;;;;;;;6.00;6.00;;;;;27.59;20.86;100791.94;5061979;28;45324;-58
2022/08/13 01:27:25;;;;;;;;;8.00;5.00;;;;;27.50;20.01;100780.94;5080599;28;45255;-58
2022/08/13 01:29:51;;;;;;;;;6.25;6.25;;;;;27.51;20.61;100792.56;5080200;28;45221;-58
2022/08/13 01:32:19;;;;;;;;;7.50;7.50;;;;;27.49;20.25;100787.31;5079850;28;46373;-58
2022/08/13 01:34:49;;;;;;;;;7.25;7.00;;;;;27.45;20.12;100788.56;5079969;28;45469;-58
2022/08/13 01:37:15;;;;;;;;;5.00;5.00;;;;;27.43;20.55;100790.53;5080254;28;45227;-58
2022/08/13 01:39:41;;;;;;;;;5.50;5.50;;;;;27.41;20.31;100789.81;5080048;28;45303;-58
2022/08/13 01:42:13;;;;;;;;;5.50;5.50;;;;;27.38;20.33;100788.22;5080300;28;45233;-58
2022/08/13 01:44:39;;;;;;;;;6.00;6.00;;;;;27.36;20.31;100784.78;5079866;28;45232;-57
2022/08/13 01:52:34;;;;;;;;;10.50;7.75;;;;;27.30;20.77;100789.84;5077433;28;45351;-57
2022/08/13 01:55:04;;;;;;;;;7.00;7.00;;;;;27.28;21.06;100791.81;5079965;28;45227;-57
2022/08/13 01:57:33;;;;;;;;;6.50;6.50;;;;;27.24;20.80;100792.06;5080047;28;45446;-58
2022/08/13 01:59:58;;;;;;;;;7.00;7.00;;;;;27.21;21.06;100781.53;5079923;28;45444;-57
2022/08/13 02:02:27;;;;;;;;;7.00;7.00;;;;;27.17;21.20;100790.00;5075467;28;46277;-57
2022/08/13 02:04:53;;;;;;;;;6.75;6.75;;;;;27.15;20.48;100798.22;5062928;28;45278;-57
2022/08/13 02:07:19;;;;;;;;;5.50;5.00;;;;;27.11;20.72;100796.78;5063397;28;45268;-57
2022/08/13 02:09:44;;;;;;;;;7.50;7.00;;;;;27.07;20.91;100795.31;5063057;28;45465;-57
2022/08/13 02:12:13;;;;;;;;;6.50;6.50;;;;;27.07;21.43;100800.72;5062932;28;45280;-54
2022/08/13 02:14:42;;;;;;;;;6.75;6.50;;;;;27.03;20.87;100794.72;5063101;28;45327;-53
2022/08/13 02:17:25;;;;;;;;;6.25;6.25;;;;;27.01;20.83;100796.69;5062878;28;45358;-54
2022/08/13 02:19:53;;;;;;;;;7.50;6.75;;;;;26.98;21.25;100799.66;5061568;28;45246;-54
2022/08/13 02:22:18;;;;;;;;;6.75;6.75;;;;;26.97;21.34;100795.22;5062891;28;47075;-53
2022/08/13 02:24:56;;;;;;;;;8.25;8.25;;;;;26.95;21.01;100805.28;5074918;28;45382;-55
2022/08/13 02:27:24;;;;;;;;;6.50;6.50;;;;;26.91;21.35;100799.28;5063049;28;45402;-55
2022/08/13 02:29:55;;;;;;;;;6.25;6.25;;;;;26.89;21.26;100793.16;5062658;28;45247;-54
2022/08/13 02:32:23;;;;;;;;;5.50;5.50;;;;;26.89;21.28;100800.38;5062371;28;45364;-55
2022/08/13 02:34:50;;;;;;;;;8.25;8.25;;;;;26.87;21.03;100791.59;5062531;28;45213;-54
2022/08/13 02:37:21;;;;;;;;;7.75;6.75;;;;;26.84;21.13;100789.13;5062789;28;45252;-54
2022/08/13 02:39:51;;;;;;;;;6.75;6.25;;;;;26.85;21.69;100801.63;5062464;28;45466;-54
2022/08/13 02:42:19;;;;;;;;;7.75;6.25;;;;;26.84;21.51;100791.81;5062336;28;46287;-57
2022/08/13 02:44:47;;;;;;;;;6.75;6.75;;;;;26.82;21.29;100793.78;5062510;28;45395;-57
2022/08/13 02:47:17;;;;;;;;;6.50;6.00;;;;;26.79;21.60;100794.88;5062289;28;45280;-56
2022/08/13 02:49:42;;;;;;;;;7.00;6.75;;;;;26.77;21.51;100797.72;5062532;28;45482;-57
2022/08/13 02:52:10;;;;;;;;;9.25;7.75;;;;;26.78;21.85;100790.50;5076344;28;45712;-57
2022/08/13 02:54:45;;;;;;;;;9.25;6.50;;;;;26.78;21.90;100795.91;5082718;28;45434;-57
2022/08/13 02:57:10;;;;;;;;;6.25;6.00;;;;;26.76;21.40;100797.84;5082842;28;45486;-57
2022/08/13 02:59:36;;;;;;;;;7.00;7.00;;;;;26.75;21.20;100798.81;5082360;28;45526;-57
2022/08/13 03:02:04;;;;;;;;;6.50;6.50;;;;;26.73;21.92;100792.69;5079948;28;45313;-57
2022/08/13 03:04:30;;;;;;;;;8.50;6.00;;;;;26.72;21.04;100793.66;5062247;28;45295;-57
2022/08/13 03:06:56;;;;;;;;;8.00;8.00;;;;;26.71;21.75;100797.34;5062242;28;45441;-57
2022/08/13 03:09:22;;;;;;;;;8.00;8.00;;;;;26.70;21.94;100787.53;5062147;28;45252;-57
2022/08/13 03:11:49;;;;;;;;;7.00;7.00;;;;;26.68;21.26;100792.19;5062022;28;45381;-57
2022/08/13 03:14:15;;;;;;;;;6.00;6.00;;;;;26.67;21.81;100791.34;5060760;28;45395;-57
2022/08/13 03:16:40;;;;;;;;;9.25;9.25;;;;;26.67;21.63;100787.81;5061705;28;45327;-57
2022/08/13 03:19:06;;;;;;;;;8.00;8.00;;;;;26.66;22.12;100792.31;5062117;28;45327;-57
2022/08/13 03:21:45;;;;;;;;;7.50;7.00;;;;;26.66;22.14;100788.78;5061923;28;45430;-57
2022/08/13 03:24:12;;;;;;;;;7.50;7.50;;;;;26.61;21.65;100795.38;5062071;28;45230;-57
2022/08/13 03:26:38;;;;;;;;;9.25;7.00;;;;;26.58;22.25;100790.25;5061761;28;45367;-57
2022/08/13 03:29:04;;;;;;;;;7.00;7.00;;;;;26.58;21.75;100794.78;5061925;28;45426;-57
2022/08/13 03:31:30;;;;;;;;;6.75;6.00;;;;;26.55;22.13;100790.50;5061277;28;46360;-57
2022/08/13 03:33:58;;;;;;;;;6.75;6.75;;;;;26.52;22.15;100789.91;5061851;28;45333;-57
2022/08/13 03:36:27;;;;;;;;;8.50;7.00;;;;;26.50;22.00;100781.06;5061809;28;45287;-57
2022/08/13 03:38:53;;;;;;;;;7.50;6.00;;;;;26.48;21.67;100783.91;5061675;28;45481;-56
2022/08/13 03:41:18;;;;;;;;;5.75;5.00;;;;;26.44;21.60;100780.59;5061294;28;46161;-57
2022/08/13 03:43:47;;;;;;;;;8.50;7.00;;;;;26.42;21.66;100785.25;5068695;28;45359;-57
2022/08/13 03:46:17;;;;;;;;;7.00;7.00;;;;;26.38;21.67;100780.25;5061328;28;45699;-57
2022/08/13 03:48:44;;;;;;;;;5.75;5.50;;;;;26.40;21.85;100787.22;5061489;28;45355;-56
2022/08/13 03:51:11;;;;;;;;;6.75;5.75;;;;;26.38;22.00;100791.88;5067152;28;45342;-57
2022/08/13 03:53:38;;;;;;;;;6.75;5.50;;;;;26.36;22.60;100784.88;5081850;28;45445;-56
2022/08/13 03:56:05;;;;;;;;;5.50;5.50;;;;;26.30;22.41;100783.53;5060623;28;45347;-57
2022/08/13 03:58:32;;;;;;;;;7.50;7.50;;;;;26.31;22.28;100787.94;5074433;28;45485;-57
2022/08/13 04:00:58;;;;;;;;;8.50;7.00;;;;;26.29;21.78;100800.69;5081045;28;46418;-57
2022/08/13 04:03:28;;;;;;;;;4.75;4.75;;;;;26.26;22.63;100787.47;5068269;27;45358;-57
2022/08/13 04:06:00;;;;;;;;;8.00;8.00;;;;;26.25;22.46;100788.44;5061398;28;45303;-57
2022/08/13 04:08:28;;;;;;;;;6.50;5.75;;;;;26.16;21.94;100778.41;5061104;28;45509;-57
2022/08/13 04:10:53;;;;;;;;;10.00;8.00;;;;;26.17;22.64;100785.50;5061070;28;45315;-57
2022/08/13 04:13:21;;;;;;;;;8.50;8.50;;;;;26.15;22.27;100788.34;5061091;28;45213;-57
2022/08/13 04:15:46;;;;;;;;;11.25;10.75;;;;;26.12;22.63;100791.25;5061025;28;45300;-57
2022/08/13 04:18:13;;;;;;;;;11.25;10.75;;;;;26.07;22.29;100791.59;5061018;28;45323;-57
2022/08/13 04:20:52;;;;;;;;;9.00;9.00;;;;;26.04;22.86;100785.59;5060800;28;46179;-57
2022/08/13 04:23:19;;;;;;;;;13.25;9.50;;;;;26.02;22.53;100783.00;5060828;28;45205;-56
2022/08/13 04:25:46;;;;;;;;;10.00;10.00;;;;;25.99;22.69;100796.72;5060626;28;45300;-57
2022/08/13 04:28:14;;;;;;;;;8.25;8.25;;;;;25.96;22.87;100789.75;5060813;28;45244;-57
2022/08/13 04:30:43;;;;;;;;;8.50;7.25;;;;;25.93;23.14;100792.66;5060564;28;46017;-56
2022/08/13 04:33:14;;;;;;;;;10.75;9.00;;;;;25.90;22.95;100792.91;5060624;28;45394;-57
2022/08/13 04:35:44;;;;;;;;;6.00;6.00;;;;;25.85;22.63;100784.34;5060888;28;45307;-57
2022/08/13 04:38:11;;;;;;;;;8.75;7.00;;;;;25.83;22.88;100796.22;5060635;28;45323;-57
2022/08/13 04:40:39;;;;;;;;;8.00;8.00;;;;;25.79;23.03;100792.91;5059352;28;47023;-57
2022/08/13 04:43:06;;;;;;;;;8.25;8.25;;;;;25.77;22.64;100794.84;5060394;28;45340;-57
2022/08/13 04:45:33;;;;;;;;;8.00;7.00;;;;;25.74;22.87;100787.88;5060585;28;45395;-57
2022/08/13 04:48:12;;;;;;;;;6.75;6.75;;;;;25.67;22.57;100775.00;5060364;28;45776;-57
2022/08/13 04:50:38;;;;;;;;;8.00;7.50;;;;;25.71;22.99;100798.88;5060598;28;47259;-57
2022/08/13 04:53:06;;;;;;;;;9.00;8.00;;;;;25.71;22.91;100795.31;5080929;28;45279;-57
2022/08/13 04:55:32;;;;;;;;;7.00;7.00;;;;;25.69;22.78;100787.38;5080777;28;45414;-57
2022/08/13 04:57:57;;;;;;;;;7.00;5.75;;;;;25.67;22.83;100792.00;5080576;28;45452;-57
2022/08/13 05:00:32;;;;;;;;;7.50;7.50;;;;;25.66;23.27;100789.44;5080607;28;46270;-57
2022/08/13 05:03:07;;;;;;;;;7.75;7.00;;;;;25.62;23.23;100781.63;5070800;28;45451;-57
2022/08/13 05:05:35;;;;;;;;;5.75;4.75;;;;;25.61;22.88;100787.97;5060317;28;45209;-58
2022/08/13 05:08:01;;;;;;;;;6.00;6.00;;;;;25.58;23.37;100790.03;5060358;28;45316;-57
2022/08/13 05:10:27;;;;;;;;;6.25;6.25;;;;;25.58;23.05;100790.03;5059825;28;46163;-58
2022/08/13 05:12:52;;;;;;;;;7.25;7.25;;;;;25.55;23.04;100785.75;5060461;28;45231;-57
2022/08/13 05:15:18;;;;;;;;;7.00;7.00;;;;;25.55;23.13;100791.13;5060086;28;45370;-57
2022/08/13 05:17:43;;;;;;;;;8.00;8.00;;;;;25.52;22.87;100795.88;5060251;28;45488;-57
2022/08/13 05:20:14;;;;;;;;;7.50;7.50;;;;;25.52;23.01;100793.19;5059930;28;45370;-57
2022/08/13 05:22:40;;;;;;;;;6.75;6.75;;;;;25.52;22.98;100802.13;5060257;28;45216;-57
2022/08/13 05:25:05;;;;;;;;;6.75;6.75;;;;;25.52;23.05;100801.25;5060101;28;46238;-58
2022/08/13 05:27:31;;;;;;;;;6.75;6.75;;;;;25.51;23.35;100800.41;5060190;28;45553;-58
2022/08/13 05:29:58;;;;;;;;;7.25;7.25;;;;;25.51;23.29;100804.91;5059720;28;45877;-57
2022/08/13 05:32:25;;;;;;;;;5.25;5.25;;;;;25.45;23.83;100798.19;5059838;28;45338;-57
2022/08/13 05:34:51;;;;;;;;;5.00;5.00;;;;;25.50;23.51;100812.16;5059601;28;45422;-58
2022/08/13 05:37:17;;;;;;;;;9.25;7.75;;;;;25.50;23.67;100809.47;5058806;28;45485;-58
2022/08/13 05:39:46;;;;;;;;;6.00;6.00;;;;;25.44;23.78;100801.84;5059673;28;46054;-57
2022/08/13 05:42:13;;;;;;;;;7.75;6.50;;;;;25.47;23.41;100805.16;5059822;28;45323;-57
2022/08/13 05:44:39;;;;;;;;;6.75;6.75;;;;;25.48;23.23;100808.72;5059878;28;45464;-57
2022/08/13 05:47:05;;;;;;;;;6.00;6.00;;;;;25.47;23.36;100813.25;5059411;28;45520;-57
2022/08/13 05:49:31;;;;;;;;;7.00;7.00;;;;;25.48;23.85;100808.72;5059765;28;46266;-58
2022/08/13 05:51:57;;;;;;;;;7.25;6.00;;;;;25.48;23.35;100811.41;5072233;28;45377;-58
2022/08/13 05:54:22;;;;;;;;;6.25;6.25;;;;;25.47;23.32;100810.56;5079917;27;45295;-58
2022/08/13 05:56:49;;;;;;;;;9.00;7.00;;;;;25.47;23.77;100809.69;5080161;28;45597;-57
2022/08/13 06:04:42;;;;;;;;;6.00;6.00;;;;;25.45;23.64;100807.09;5059495;28;45433;-58
2022/08/13 06:07:09;;;;;;;;;6.00;6.00;;;;;25.49;23.56;100809.59;5059470;28;45292;-58
2022/08/13 06:09:35;;;;;;;;;6.25;6.25;;;;;25.49;23.78;100807.75;5059403;28;45379;-58
2022/08/13 06:12:01;;;;;;;;;6.00;6.00;;;;;25.49;23.86;100810.44;5059359;28;45322;-58
2022/08/13 06:14:26;;;;;;;;;6.00;6.00;;;;;25.50;23.99;100813.97;5059430;28;45301;-58
2022/08/13 06:16:52;;;;;;;;;7.00;6.50;;;;;25.51;24.14;100818.38;5059061;28;45501;-58
2022/08/13 06:19:21;;;;;;;;;7.25;6.75;;;;;25.50;23.84;100809.47;5059446;28;45340;-58
2022/08/13 06:21:48;;;;;;;;;6.00;5.00;;;;;25.52;23.61;100818.28;5059528;28;45202;-58
2022/08/13 06:24:14;;;;;;;;;6.00;6.00;;;;;25.51;23.82;100808.50;5059386;28;45300;-58
2022/08/13 06:26:40;;;;;;;;;5.00;5.00;;;;;25.47;24.08;100804.28;5059150;28;45239;-58
2022/08/13 06:29:06;;;;;;;;;6.00;5.00;;;;;25.55;23.74;100815.34;5065976;28;46993;-58
2022/08/13 06:31:35;;;;;;;;;6.50;6.50;;;;;25.57;24.09;100816.09;5058688;28;45475;-58
2022/08/13 06:34:01;;;;;;;;;7.25;7.25;;;;;25.59;24.23;100816.81;5059222;28;45272;-58
2022/08/13 06:36:31;;;;;;;;;9.00;8.00;;;;;25.61;24.17;100814.88;5058888;28;45330;-58
2022/08/13 06:39:02;;;;;;;;;5.50;5.50;;;;;25.63;24.19;100817.44;5059243;28;46167;-58
2022/08/13 06:41:31;;;;;;;;;9.25;7.25;;;;;25.64;23.91;100813.78;5058944;28;45348;-58
2022/08/13 06:43:57;;;;;;;;;7.50;6.50;;;;;25.66;23.85;100819.03;5057732;28;45267;-58
2022/08/13 06:46:25;;;;;;;;;6.75;5.25;;;;;25.68;24.36;100817.09;5058566;28;45248;-58
2022/08/13 06:48:52;;;;;;;;;5.75;5.75;;;;;25.69;24.33;100813.44;5059777;28;45964;-58
2022/08/13 06:51:18;;;;;;;;;7.75;7.75;;;;;25.71;24.30;100811.47;5069632;28;45490;-58
2022/08/13 06:53:45;;;;;;;;;4.00;4.00;;;;;25.76;24.46;100817.34;5083020;28;45227;-58
2022/08/13 06:56:16;;;;;;;;;6.00;6.00;;;;;25.76;23.97;100814.66;5082852;28;45427;-58
2022/08/13 06:58:50;;;;;;;;;6.00;6.00;;;;;25.77;24.25;100816.38;5082383;28;45548;-58
2022/08/13 07:01:23;;;;;;;;;7.00;6.00;;;;;25.78;24.02;100810.03;5082203;28;45553;-58
2022/08/13 07:03:50;;;;;;;;;7.00;7.00;;;;;25.84;24.43;100816.78;5065331;27;45335;-57
2022/08/13 07:06:24;;;;;;;;;5.00;5.00;;;;;25.86;24.48;100821.06;5062191;28;45731;-57
2022/08/13 07:08:53;;;;;;;;;7.75;6.00;;;;;25.90;24.25;100827.03;5062037;28;46196;-57
2022/08/13 07:11:21;;;;;;;;;3.50;3.50;;;;;25.93;23.93;100834.88;5062119;28;45369;-57
2022/08/13 07:13:50;;;;;;;;;5.25;5.25;;;;;25.95;24.48;100825.72;5062179;28;45306;-58
2022/08/13 07:16:16;;;;;;;;;8.75;7.25;;;;;25.98;24.01;100815.69;5061713;28;45330;-58
2022/08/13 07:18:43;;;;;;;;;8.25;7.00;;;;;26.03;24.56;100829.66;5061729;28;45267;-56
2022/08/13 07:21:11;;;;;;;;;6.00;6.00;;;;;26.05;24.49;100822.28;5061796;28;45259;-56
2022/08/13 07:23:38;;;;;;;;;7.00;7.00;;;;;26.08;23.97;100825.63;5061914;28;45405;-56
2022/08/13 07:26:05;;;;;;;;;5.00;5.00;;;;;26.11;24.69;100827.22;5061757;28;45404;-57
2022/08/13 07:28:31;;;;;;;;;4.50;4.50;;;;;26.16;24.51;100829.56;5061753;28;45382;-56
2022/08/13 07:30:57;;;;;;;;;6.00;6.00;;;;;26.18;24.64;100827.63;5061284;28;45525;-58
2022/08/13 07:33:24;;;;;;;;;5.00;5.00;;;;;26.23;24.20;100837.03;5061816;28;45294;-56
2022/08/13 07:35:49;;;;;;;;;6.50;6.00;;;;;26.27;24.32;100838.50;5060499;28;46092;-56
2022/08/13 07:38:15;;;;;;;;;6.75;6.75;;;;;26.33;24.15;100847.94;5061692;28;45219;-56
2022/08/13 07:40:43;;;;;;;;;7.25;7.25;;;;;26.36;24.20;100850.38;5061832;28;45223;-57
2022/08/13 07:43:12;;;;;;;;;6.00;4.75;;;;;26.40;24.51;100848.31;5061826;28;45667;-57
2022/08/13 07:45:39;;;;;;;;;6.00;6.00;;;;;26.45;24.69;100851.47;5061340;28;45252;-57
2022/08/13 07:48:05;;;;;;;;;9.00;5.50;;;;;26.50;24.42;100846.59;5061361;28;46955;-57
2022/08/13 07:50:33;;;;;;;;;4.00;4.00;;;;;26.53;24.20;100840.13;5061940;28;45225;-57
2022/08/13 07:52:59;;;;;;;;;6.50;4.50;;;;;26.60;24.12;100844.88;5082040;28;46514;-57
2022/08/13 07:55:27;;;;;;;;;7.00;6.00;;;;;26.66;24.73;100846.22;5081696;28;45456;-57
2022/08/13 07:57:53;;;;;;;;;10.25;9.75;;;;;26.72;24.60;100842.19;5081277;28;47511;-57
2022/08/13 08:00:24;;;;;;;;;3.50;3.50;;;;;26.77;24.79;100853.47;5080580;28;45269;-57
2022/08/13 08:03:03;;;;;;;;;5.00;5.00;;;;;26.83;24.05;100852.97;5073509;28;45300;-57
2022/08/13 08:05:35;;;;;;;;;6.75;5.25;;;;;26.87;24.00;100846.34;5061328;28;45301;-57
2022/08/13 08:08:01;;;;;;;;;5.50;5.50;;;;;26.92;24.19;100849.50;5061162;28;46266;-57
2022/08/13 08:10:27;;;;;;;;;4.75;4.75;;;;;26.96;24.67;100843.88;5060934;28;45314;-57
2022/08/13 08:12:59;;;;;;;;;6.00;6.00;;;;;27.03;24.81;100851.34;5061532;28;45561;-57
2022/08/13 08:15:26;;;;;;;;;4.00;4.00;;;;;27.09;24.72;100849.97;5060295;28;45372;-57
2022/08/13 08:17:53;;;;;;;;;7.25;6.25;;;;;27.13;24.24;100842.47;5060814;28;47005;-57
2022/08/13 08:20:21;;;;;;;;;6.00;6.00;;;;;27.19;24.47;100847.38;5060985;28;45477;-57
2022/08/13 08:22:48;;;;;;;;;5.75;4.00;;;;;27.27;24.61;100842.22;5061113;28;45476;-57
2022/08/13 08:25:18;;;;;;;;;5.50;4.00;;;;;27.33;24.14;100849.78;5060867;28;45387;-56
2022/08/13 08:27:44;;;;;;;;;6.00;4.00;;;;;27.40;24.00;100851.00;5061077;28;46127;-58
2022/08/13 08:30:09;;;;;;;;;5.75;4.50;;;;;27.44;24.13;100854.28;5060527;28;45260;-58
2022/08/13 08:32:36;;;;;;;;;5.25;5.25;;;;;27.49;24.43;100840.44;5060911;28;45313;-56
2022/08/13 08:35:02;;;;;;;;;4.00;4.00;;;;;27.58;24.00;100842.34;5060874;28;45259;-58
2022/08/13 08:43:00;;;;;;;;;5.25;5.25;;;;;27.76;24.09;100856.13;5060890;28;45275;-56
2022/08/13 08:45:27;;;;;;;;;5.75;5.25;;;;;27.84;23.63;100852.75;5060259;28;45485;-57
2022/08/13 08:47:52;;;;;;;;;4.00;4.00;;;;;27.95;24.03;100859.91;5060335;28;46386;-57
2022/08/13 08:50:24;;;;;;;;;5.00;5.00;;;;;28.01;24.19;100849.47;5060468;28;45248;-57
2022/08/13 08:55:36;;;;;;;;;7.00;6.00;;;;;28.16;23.88;100852.72;5080886;28;45353;-57
2022/08/13 08:58:07;;;;;;;;;4.25;4.25;;;;;28.22;23.58;100856.72;5080598;28;46154;-57
2022/08/13 09:00:37;;;;;;;;;6.25;6.25;;;;;28.30;23.68;100854.22;5080374;28;45224;-57
2022/08/13 09:03:04;;;;;;;;;3.75;3.75;;;;;28.40;24.14;100859.63;5069870;28;45227;-57
2022/08/13 09:05:31;;;;;;;;;5.00;4.75;;;;;28.47;24.06;100858.09;5060488;28;45206;-57
2022/08/13 09:07:59;;;;;;;;;4.00;4.00;;;;;28.54;23.43;100853.88;5060277;28;45307;-57
2022/08/13 09:10:25;;;;;;;;;5.00;4.00;;;;;28.64;23.54;100856.63;5060113;28;45280;-57
2022/08/13 09:12:50;;;;;;;;;6.00;6.00;;;;;28.72;23.75;100858.66;5060500;28;45272;-57
2022/08/13 09:15:22;;;;;;;;;3.25;3.00;;;;;28.81;23.58;100852.41;5060080;28;45306;-57
2022/08/13 09:17:49;;;;;;;;;2.75;2.75;;;;;28.86;23.49;100844.75;5060065;28;45291;-57
2022/08/13 09:20:26;;;;;;;;;4.00;4.00;;;;;28.95;23.39;100844.91;5058846;28;45686;-57
2022/08/13 09:23:07;;;;;;;;;4.00;4.00;;;;;29.05;23.46;100850.34;5060389;28;45307;-57
2022/08/13 09:25:40;;;;;;;;;5.50;5.25;;;;;29.13;23.34;100847.78;5068399;28;45547;-57
2022/08/13 09:28:08;;;;;;;;;6.50;6.50;;;;;29.23;23.20;100850.50;5080291;28;46900;-57
2022/08/13 09:30:36;;;;;;;;;3.50;3.50;;;;;29.33;23.28;100848.69;5069610;28;45414;-57
2022/08/13 09:33:03;;;;;;;;;4.25;4.25;;;;;29.42;23.21;100836.16;5076516;28;45330;-57
2022/08/13 09:35:30;;;;;;;;;4.00;4.00;;;;;29.51;23.22;100852.41;5080352;28;45467;-57
2022/08/13 09:37:57;;;;;;;;;2.00;2.00;;;;;29.60;23.07;100850.69;5080046;28;45273;-57
2022/08/13 09:40:28;;;;;;;;;6.00;4.25;;;;;29.71;22.97;100846.97;5080211;28;45251;-57
2022/08/13 09:43:02;;;;;;;;;3.75;3.00;;;;;29.82;22.76;100848.66;5080150;28;45269;-57
2022/08/13 09:45:29;;;;;;;;;4.25;4.25;;;;;29.91;22.80;100855.97;5079975;28;45475;-57
2022/08/13 09:47:55;;;;;;;;;3.50;3.50;;;;;30.01;22.80;100850.50;5079585;28;45238;-57
2022/08/13 09:50:23;;;;;;;;;5.00;5.00;;;;;30.11;22.72;100853.19;5072145;28;45251;-57
2022/08/13 09:52:51;;;;;;;;;3.75;3.75;;;;;30.19;22.49;100857.88;5079606;28;45349;-57
2022/08/13 09:55:16;;;;;;;;;2.75;2.75;;;;;30.28;22.37;100846.16;5079911;28;45482;-57
2022/08/13 09:58:02;;;;;;;;;5.00;4.00;;;;;30.41;22.07;100843.94;5058578;28;46610;-57
2022/08/13 10:00:29;;;;;;;;;2.00;2.00;;;;;30.49;21.96;100840.53;5075237;28;45417;-57
2022/08/13 10:02:59;;;;;;;;;5.00;5.00;;;;;30.63;21.81;100842.75;5070236;28;45235;-57
2022/08/13 10:05:26;;;;;;;;;4.00;3.25;;;;;30.72;22.00;100841.00;5059527;28;45386;-57
2022/08/13 10:07:53;;;;;;;;;4.25;2.50;;;;;30.84;21.85;100838.91;5059488;28;46612;-57
2022/08/13 10:10:19;;;;;;;;;3.50;3.50;;;;;30.99;21.53;100838.41;5059355;28;45200;-57
2022/08/13 10:12:45;;;;;;;;;3.00;3.00;;;;;31.11;21.43;100829.06;5058135;28;45422;-57
2022/08/13 10:15:12;;;;;;;;;4.25;4.25;;;;;31.22;21.53;100833.41;5059073;28;45437;-57
2022/08/13 10:17:55;;;;;;;;;3.00;2.75;;;;;31.35;21.27;100833.88;5059387;28;45965;-57
2022/08/13 10:20:30;;;;;;;;;3.25;1.50;;;;;31.51;21.33;100835.00;5059296;28;45251;-57
2022/08/13 10:22:57;;;;;;;;;2.50;2.50;;;;;31.67;21.54;100823.47;5042324;28;45312;-57
2022/08/13 10:25:24;;;;;;;;;3.25;3.25;;;;;31.79;21.44;100827.63;5062927;28;45473;-57
2022/08/13 10:27:50;;;;;;;;;3.50;3.50;;;;;31.93;20.82;100823.47;5062659;28;46263;-57
2022/08/13 10:30:22;;;;;;;;;3.25;3.25;;;;;32.11;21.16;100822.56;5062532;28;45404;-57
2022/08/13 10:32:47;;;;;;;;;4.00;4.00;;;;;32.30;20.80;100821.50;5062716;28;45243;-57
2022/08/13 10:35:17;;;;;;;;;3.00;3.00;;;;;32.48;20.98;100830.44;5062656;28;45325;-57
2022/08/13 10:37:45;;;;;;;;;3.75;2.75;;;;;32.77;21.06;100831.94;5062586;28;46319;-57
2022/08/13 10:40:13;;;;;;;;;5.00;5.00;;;;;33.13;21.11;100828.09;5061332;28;45306;-57
2022/08/13 10:42:39;;;;;;;;;3.00;3.00;;;;;33.51;21.08;100817.56;5073756;28;45341;-57
2022/08/13 10:45:05;;;;;;;;;3.00;3.00;;;;;34.00;21.43;100814.84;5062203;28;45419;-56
2022/08/13 10:47:31;;;;;;;;;2.00;2.00;;;;;34.53;21.56;100808.88;5062270;28;46220;-56
2022/08/13 10:49:58;;;;;;;;;3.00;3.00;;;;;35.08;21.04;100806.19;5061166;28;45815;-57
2022/08/13 10:52:24;;;;;;;;;3.00;3.00;;;;;35.67;21.09;100811.00;5079040;28;45279;-57
2022/08/13 10:54:49;;;;;;;;;3.75;3.75;;;;;36.24;20.85;100800.50;5082750;28;45479;-57
2022/08/13 10:57:15;;;;;;;;;4.00;4.00;;;;;36.80;20.44;100819.13;5082460;28;46223;-58
2022/08/13 10:59:43;;;;;;;;;2.75;2.75;;;;;37.31;20.37;100812.72;5082118;28;45231;-58
2022/08/13 11:02:09;;;;;;;;;4.25;3.25;;;;;37.83;20.02;100815.28;5079288;28;45501;-59
2022/08/13 11:04:36;;;;;;;;;1.75;1.75;;;;;38.34;19.68;100808.63;5060951;28;45641;-58
2022/08/13 11:07:03;;;;;;;;;2.00;2.00;;;;;38.89;19.16;100796.81;5062105;28;46090;-60
2022/08/13 11:09:28;;;;;;;;;3.75;3.75;;;;;39.42;18.98;100807.91;5067789;28;45286;-57
2022/08/13 11:11:57;;;;;;;;;4.25;3.00;;;;;39.93;18.83;100811.88;5062191;28;45221;-56
2022/08/13 11:14:23;;;;;;;;;2.50;2.50;;;;;40.41;18.46;100815.34;5062128;28;45244;-56
2022/08/13 11:19:14;;;;;;;;;1.25;1.25;;;;;41.23;18.03;100814.69;5062069;28;45304;-58
2022/08/13 11:21:44;;;;;;;;;3.50;3.50;;;;;41.62;17.93;100814.63;5062112;28;45319;-58
2022/08/13 11:24:10;;;;;;;;;3.50;3.50;;;;;41.97;17.33;100811.31;5072034;28;45387;-59
2022/08/13 11:26:36;;;;;;;;;2.00;2.00;;;;;42.33;16.95;100809.63;5080901;28;46006;-59
2022/08/13 11:29:01;;;;;;;;;1.00;1.00;;;;;42.66;16.94;100805.59;5071100;28;45162;-59
2022/08/13 11:31:27;;;;;;;;;1.75;1.75;;;;;43.00;16.55;100806.81;5061581;28;45284;-59
2022/08/13 11:33:52;;;;;;;;;3.00;3.00;;;;;43.33;17.03;100804.59;5061296;28;45490;-59
2022/08/13 11:36:17;;;;;;;;;2.00;2.00;;;;;43.66;16.36;100806.81;5061049;28;46202;-58
2022/08/13 11:38:43;;;;;;;;;1.00;1.00;;;;;43.95;15.99;100803.31;5061864;28;45279;-58
2022/08/13 11:41:08;;;;;;;;;3.50;3.50;;;;;44.18;15.74;100799.66;5061907;28;45494;-58
2022/08/13 11:43:34;;;;;;;;;3.00;3.00;;;;;44.37;15.47;100797.59;5061726;28;45515;-58
2022/08/13 11:45:59;;;;;;;;;2.00;2.00;;;;;44.54;15.07;100794.84;5059932;28;48045;-58
2022/08/13 11:48:25;;;;;;;;;1.75;1.75;;;;;44.68;15.05;100798.16;5061757;28;45315;-59
2022/08/13 11:50:51;;;;;;;;;0.25;0.25;;;;;44.75;14.74;100796.13;5065063;28;45441;-59